createdAt,value
2015-08-02T00:00:09.559Z,19.2
2015-08-02T00:00:27.842Z,19.1
2015-08-02T00:00:46.358Z,19.1
2015-08-02T00:01:04.764Z,19.1
2015-08-02T00:01:23.328Z,19.1
2015-08-02T00:01:41.860Z,19.1
2015-08-02T00:02:00.453Z,19.1
2015-08-02T00:02:18.969Z,19.1
2015-08-02T00:02:37.455Z,19.1
2015-08-02T00:02:55.893Z,19.1
2015-08-02T00:03:14.408Z,19.1
2015-08-02T00:03:32.988Z,19.2
2015-08-02T00:03:51.441Z,19.2
2015-08-02T00:04:10.003Z,19.2
2015-08-02T00:04:28.550Z,19.2
2015-08-02T00:04:46.943Z,19.2
2015-08-02T00:05:05.427Z,19.2
2015-08-02T00:05:24.083Z,19.2
2015-08-02T00:05:42.477Z,19.2
2015-08-02T00:06:01.211Z,19.2
2015-08-02T00:06:19.696Z,19.2
2015-08-02T00:06:38.555Z,19.2
2015-08-02T00:06:56.979Z,19.2
2015-08-02T00:07:15.526Z,19.3
2015-08-02T00:07:34.182Z,19.3
2015-08-02T00:07:52.934Z,19.3
2015-08-02T00:08:11.325Z,19.3
2015-08-02T00:08:29.918Z,19.3
2015-08-02T00:08:48.309Z,19.3
2015-08-02T00:09:07.031Z,19.3
2015-08-02T00:09:25.640Z,19.2
2015-08-02T00:09:44.140Z,19.2
2015-08-02T00:10:02.563Z,19.2
2015-08-02T00:10:21.001Z,19.2
2015-08-02T00:10:39.579Z,19.2
2015-08-02T00:10:57.891Z,19.2
2015-08-02T00:11:16.425Z,19.2
2015-08-02T00:11:34.910Z,19.2
2015-08-02T00:11:53.582Z,19.2
2015-08-02T00:12:12.145Z,19.1
2015-08-02T00:12:30.692Z,19.2
2015-08-02T00:12:49.161Z,19.2
2015-08-02T00:13:07.661Z,19.3
2015-08-02T00:13:26.085Z,19.3
2015-08-02T00:13:44.694Z,19.3
2015-08-02T00:14:03.116Z,19.4
2015-08-02T00:14:21.665Z,19.4
2015-08-02T00:14:40.227Z,19.3
2015-08-02T00:14:58.790Z,19.3
2015-08-02T00:15:17.149Z,19.3
2015-08-02T00:15:35.792Z,19.3
2015-08-02T00:15:54.214Z,19.2
2015-08-02T00:16:12.589Z,19.2
2015-08-02T00:16:31.060Z,19.2
2015-08-02T00:16:49.654Z,19.2
2015-08-02T00:17:08.139Z,19.2
2015-08-02T00:17:26.623Z,19.2
2015-08-02T00:17:45.046Z,19.2
2015-08-02T00:18:03.452Z,19.2
2015-08-02T00:18:21.827Z,19.2
2015-08-02T00:18:40.314Z,19.2
2015-08-02T00:18:58.689Z,19.3
2015-08-02T00:19:17.221Z,19.2
2015-08-02T00:19:35.814Z,19.3
2015-08-02T00:19:54.348Z,19.3
2015-08-02T00:20:12.082Z,19.3
2015-08-02T00:20:30.629Z,19.3
2015-08-02T00:20:49.272Z,19.3
2015-08-02T00:21:07.803Z,19.3
2015-08-02T00:21:26.225Z,19.4
2015-08-02T00:21:44.631Z,19.4
2015-08-02T00:22:03.024Z,19.4
2015-08-02T00:22:21.430Z,19.4
2015-08-02T00:22:39.852Z,19.5
2015-08-02T00:22:58.244Z,19.6
2015-08-02T00:23:16.651Z,19.6
2015-08-02T00:23:35.151Z,19.6
2015-08-02T00:23:53.588Z,19.6
2015-08-02T00:24:12.168Z,19.5
2015-08-02T00:24:30.731Z,19.5
2015-08-02T00:24:49.559Z,19.5
2015-08-02T00:25:08.248Z,19.5
2015-08-02T00:25:26.780Z,19.6
2015-08-02T00:25:45.373Z,19.6
2015-08-02T00:26:03.780Z,19.6
2015-08-02T00:26:22.298Z,19.6
2015-08-02T00:26:40.845Z,19.6
2015-08-02T00:26:59.220Z,19.6
2015-08-02T00:27:17.738Z,19.6
2015-08-02T00:27:36.128Z,19.6
2015-08-02T00:27:54.581Z,19.6
2015-08-02T00:28:12.988Z,19.6
2015-08-02T00:28:31.473Z,19.6
2015-08-02T00:28:49.879Z,19.6
2015-08-02T00:29:08.254Z,19.6
2015-08-02T00:29:26.678Z,19.5
2015-08-02T00:29:45.209Z,19.5
2015-08-02T00:30:03.584Z,19.4
2015-08-02T00:30:21.991Z,19.3
2015-08-02T00:30:40.368Z,19.4
2015-08-02T00:30:58.836Z,19.5
2015-08-02T00:31:17.336Z,19.5
2015-08-02T00:31:35.996Z,19.4
2015-08-02T00:31:54.402Z,19.3
2015-08-02T00:32:12.777Z,19.3
2015-08-02T00:32:31.214Z,19.4
2015-08-02T00:32:49.794Z,19.4
2015-08-02T00:33:08.169Z,19.4
2015-08-02T00:33:26.747Z,19.4
2015-08-02T00:33:45.125Z,19.5
2015-08-02T00:34:03.562Z,19.5
2015-08-02T00:34:21.968Z,19.5
2015-08-02T00:34:40.359Z,19.5
2015-08-02T00:34:58.877Z,19.6
2015-08-02T00:35:17.533Z,19.6
2015-08-02T00:35:35.955Z,19.6
2015-08-02T00:35:54.535Z,19.5
2015-08-02T00:36:12.972Z,19.6
2015-08-02T00:36:31.426Z,19.6
2015-08-02T00:36:49.910Z,19.6
2015-08-02T00:37:08.318Z,19.6
2015-08-02T00:37:26.709Z,19.5
2015-08-02T00:37:45.131Z,19.5
2015-08-02T00:38:03.492Z,19.5
2015-08-02T00:38:21.930Z,19.5
2015-08-02T00:38:40.289Z,19.5
2015-08-02T00:38:58.664Z,19.4
2015-08-02T00:39:17.103Z,19.4
2015-08-02T00:39:35.525Z,19.3
2015-08-02T00:39:54.166Z,19.3
2015-08-02T00:40:12.559Z,19.3
2015-08-02T00:40:31.043Z,19.3
2015-08-02T00:40:49.418Z,19.3
2015-08-02T00:41:07.809Z,19.4
2015-08-02T00:41:26.186Z,19.4
2015-08-02T00:41:44.654Z,19.4
2015-08-02T00:42:02.389Z,19.3
2015-08-02T00:42:20.939Z,19.4
2015-08-02T00:42:39.532Z,19.4
2015-08-02T00:42:58.126Z,19.5
2015-08-02T00:43:16.626Z,19.5
2015-08-02T00:43:35.128Z,19.5
2015-08-02T00:43:53.800Z,19.5
2015-08-02T00:44:12.191Z,19.5
2015-08-02T00:44:30.614Z,19.6
2015-08-02T00:44:49.224Z,19.6
2015-08-02T00:45:07.708Z,19.6
2015-08-02T00:45:26.224Z,19.6
2015-08-02T00:45:44.600Z,19.5
2015-08-02T00:46:03.225Z,19.6
2015-08-02T00:46:21.850Z,19.5
2015-08-02T00:46:40.290Z,19.6
2015-08-02T00:46:58.681Z,19.5
2015-08-02T00:47:17.134Z,19.6
2015-08-02T00:47:35.697Z,19.6
2015-08-02T00:47:54.291Z,19.6
2015-08-02T00:48:12.776Z,19.6
2015-08-02T00:48:31.307Z,19.5
2015-08-02T00:48:49.731Z,19.6
2015-08-02T00:49:08.325Z,19.5
2015-08-02T00:49:26.746Z,19.5
2015-08-02T00:49:45.450Z,19.4
2015-08-02T00:50:03.890Z,19.4
2015-08-02T00:50:22.312Z,19.4
2015-08-02T00:50:40.718Z,19.3
2015-08-02T00:50:59.485Z,19.3
2015-08-02T00:51:17.954Z,19.2
2015-08-02T00:51:36.391Z,19.2
2015-08-02T00:51:54.766Z,19.3
2015-08-02T00:52:13.285Z,19.3
2015-08-02T00:52:31.722Z,19.3
2015-08-02T00:52:50.425Z,19.2
2015-08-02T00:53:08.912Z,19.2
2015-08-02T00:53:27.490Z,19.2
2015-08-02T00:53:46.146Z,19.3
2015-08-02T00:54:04.677Z,19.4
2015-08-02T00:54:23.101Z,19.3
2015-08-02T00:54:41.492Z,19.3
2015-08-02T00:54:59.929Z,19.3
2015-08-02T00:55:18.369Z,19.3
2015-08-02T00:55:36.775Z,19.3
2015-08-02T00:55:55.244Z,19.4
2015-08-02T00:56:13.619Z,19.4
2015-08-02T00:56:31.386Z,19.4
2015-08-02T00:56:50.011Z,19.5
2015-08-02T00:57:08.605Z,19.5
2015-08-02T00:57:26.998Z,19.5
2015-08-02T00:57:45.404Z,19.4
2015-08-02T00:58:03.857Z,19.4
2015-08-02T00:58:22.404Z,19.5
2015-08-02T00:58:41.125Z,19.5
2015-08-02T00:58:59.515Z,19.4
2015-08-02T00:59:17.922Z,19.4
2015-08-02T00:59:35.893Z,19.4
2015-08-02T00:59:54.300Z,19.4
2015-08-02T01:00:12.690Z,19.5
2015-08-02T01:00:31.081Z,19.5
2015-08-02T01:00:49.488Z,19.5
2015-08-02T01:01:07.894Z,19.6
2015-08-02T01:01:26.316Z,19.7
2015-08-02T01:01:44.740Z,19.7
2015-08-02T01:02:03.271Z,19.7
2015-08-02T01:02:21.678Z,19.7
2015-08-02T01:02:40.115Z,19.7
2015-08-02T01:02:58.634Z,19.7
2015-08-02T01:03:17.009Z,19.6
2015-08-02T01:03:35.571Z,19.6
2015-08-02T01:03:53.995Z,19.6
2015-08-02T01:04:12.526Z,19.6
2015-08-02T01:04:30.948Z,19.5
2015-08-02T01:04:49.417Z,19.4
2015-08-02T01:05:07.841Z,19.5
2015-08-02T01:05:26.278Z,19.5
2015-08-02T01:05:44.669Z,19.5
2015-08-02T01:06:03.077Z,19.6
2015-08-02T01:06:21.515Z,19.5
2015-08-02T01:06:39.905Z,19.5
2015-08-02T01:06:58.312Z,19.5
2015-08-02T01:07:16.797Z,19.5
2015-08-02T01:07:35.406Z,19.5
2015-08-02T01:07:53.906Z,19.5
2015-08-02T01:08:12.300Z,19.6
2015-08-02T01:08:30.831Z,19.6
2015-08-02T01:08:49.222Z,19.6
2015-08-02T01:09:07.847Z,19.5
2015-08-02T01:09:26.285Z,19.5
2015-08-02T01:09:44.676Z,19.5
2015-08-02T01:10:03.223Z,19.5
2015-08-02T01:10:21.757Z,19.5
2015-08-02T01:10:40.132Z,19.4
2015-08-02T01:10:58.507Z,19.4
2015-08-02T01:11:16.913Z,19.4
2015-08-02T01:11:35.306Z,19.5
2015-08-02T01:11:53.697Z,19.5
2015-08-02T01:12:12.134Z,19.5
2015-08-02T01:12:30.622Z,19.5
2015-08-02T01:12:49.012Z,19.6
2015-08-02T01:13:07.528Z,19.6
2015-08-02T01:13:25.934Z,19.6
2015-08-02T01:13:44.310Z,19.6
2015-08-02T01:14:02.763Z,19.6
2015-08-02T01:14:21.154Z,19.6
2015-08-02T01:14:41.156Z,19.5
2015-08-02T01:14:59.578Z,19.4
2015-08-02T01:15:17.984Z,19.5
2015-08-02T01:15:36.390Z,19.4
2015-08-02T01:15:54.798Z,19.5
2015-08-02T01:16:13.392Z,19.5
2015-08-02T01:16:31.798Z,19.5
2015-08-02T01:16:50.191Z,19.5
2015-08-02T01:17:08.582Z,19.5
2015-08-02T01:17:27.129Z,19.6
2015-08-02T01:17:45.535Z,19.6
2015-08-02T01:18:03.974Z,19.6
2015-08-02T01:18:22.396Z,19.6
2015-08-02T01:18:40.787Z,19.6
2015-08-02T01:18:59.352Z,19.6
2015-08-02T01:19:17.759Z,19.6
2015-08-02T01:19:36.149Z,19.6
2015-08-02T01:19:54.618Z,19.6
2015-08-02T01:20:13.151Z,19.7
2015-08-02T01:20:31.557Z,19.6
2015-08-02T01:20:50.011Z,19.6
2015-08-02T01:21:08.403Z,19.6
2015-08-02T01:21:26.794Z,19.6
2015-08-02T01:21:45.184Z,19.6
2015-08-02T01:22:03.653Z,19.6
2015-08-02T01:22:22.077Z,19.6
2015-08-02T01:22:40.483Z,19.7
2015-08-02T01:22:58.858Z,19.7
2015-08-02T01:23:17.251Z,19.7
2015-08-02T01:23:35.845Z,19.7
2015-08-02T01:23:54.251Z,19.7
2015-08-02T01:24:12.642Z,19.7
2015-08-02T01:24:31.065Z,19.7
2015-08-02T01:24:49.659Z,19.6
2015-08-02T01:25:08.237Z,19.6
2015-08-02T01:25:26.677Z,19.6
2015-08-02T01:25:45.067Z,19.6
2015-08-02T01:26:03.489Z,19.7
2015-08-02T01:26:21.880Z,19.6
2015-08-02T01:26:40.460Z,19.7
2015-08-02T01:26:58.851Z,19.7
2015-08-02T01:27:17.241Z,19.7
2015-08-02T01:27:35.634Z,19.8
2015-08-02T01:27:54.040Z,19.7
2015-08-02T01:28:12.618Z,19.7
2015-08-02T01:28:31.025Z,19.7
2015-08-02T01:28:49.417Z,19.7
2015-08-02T01:29:07.808Z,19.6
2015-08-02T01:29:26.277Z,19.5
2015-08-02T01:29:44.669Z,19.5
2015-08-02T01:30:03.044Z,19.5
2015-08-02T01:30:21.513Z,19.6
2015-08-02T01:30:39.919Z,19.6
2015-08-02T01:30:58.312Z,19.6
2015-08-02T01:31:16.312Z,19.7
2015-08-02T01:31:34.718Z,19.7
2015-08-02T01:31:53.220Z,19.6
2015-08-02T01:32:11.611Z,19.6
2015-08-02T01:32:29.986Z,19.6
2015-08-02T01:32:48.533Z,19.6
2015-08-02T01:33:07.020Z,19.6
2015-08-02T01:33:25.473Z,19.7
2015-08-02T01:33:43.973Z,19.7
2015-08-02T01:34:02.396Z,19.7
2015-08-02T01:34:20.787Z,19.7
2015-08-02T01:34:39.302Z,19.7
2015-08-02T01:34:57.693Z,19.7
2015-08-02T01:35:16.085Z,19.7
2015-08-02T01:35:34.523Z,19.7
2015-08-02T01:35:52.945Z,19.7
2015-08-02T01:36:11.338Z,19.7
2015-08-02T01:36:29.995Z,19.7
2015-08-02T01:36:48.448Z,19.8
2015-08-02T01:37:06.854Z,19.8
2015-08-02T01:37:25.246Z,19.7
2015-08-02T01:37:43.652Z,19.7
2015-08-02T01:38:02.105Z,19.8
2015-08-02T01:38:20.576Z,19.8
2015-08-02T01:38:39.029Z,19.8
2015-08-02T01:38:57.779Z,19.8
2015-08-02T01:39:16.435Z,19.9
2015-08-02T01:39:34.860Z,19.8
2015-08-02T01:39:53.360Z,19.9
2015-08-02T01:40:11.938Z,19.9
2015-08-02T01:40:30.315Z,19.8
2015-08-02T01:40:49.128Z,19.7
2015-08-02T01:41:07.565Z,19.7
2015-08-02T01:41:26.128Z,19.7
2015-08-02T01:41:44.520Z,19.6
2015-08-02T01:42:03.036Z,19.6
2015-08-02T01:42:21.567Z,19.6
2015-08-02T01:42:40.210Z,19.6
2015-08-02T01:42:58.616Z,19.6
2015-08-02T01:43:17.085Z,19.7
2015-08-02T01:43:35.804Z,19.7
2015-08-02T01:43:54.227Z,19.7
2015-08-02T01:44:12.618Z,19.7
2015-08-02T01:44:31.118Z,19.7
2015-08-02T01:44:49.559Z,19.8
2015-08-02T01:45:07.293Z,19.8
2015-08-02T01:45:25.762Z,19.7
2015-08-02T01:45:44.246Z,19.8
2015-08-02T01:46:02.903Z,19.7
2015-08-02T01:46:21.544Z,19.7
2015-08-02T01:46:40.278Z,19.7
2015-08-02T01:46:58.874Z,19.7
2015-08-02T01:47:17.640Z,19.7
2015-08-02T01:47:36.140Z,19.7
2015-08-02T01:47:54.765Z,19.7
2015-08-02T01:48:13.407Z,19.7
2015-08-02T01:48:31.954Z,19.7
2015-08-02T01:48:50.751Z,19.7
2015-08-02T01:49:09.206Z,19.7
2015-08-02T01:49:27.784Z,19.7
2015-08-02T01:49:46.300Z,19.7
2015-08-02T01:50:04.800Z,19.6
2015-08-02T01:50:23.334Z,19.7
2015-08-02T01:50:42.022Z,19.7
2015-08-02T01:51:00.740Z,19.7
2015-08-02T01:51:19.179Z,19.7
2015-08-02T01:51:37.773Z,19.8
2015-08-02T01:51:56.226Z,19.8
2015-08-02T01:52:14.804Z,19.7
2015-08-02T01:52:33.229Z,19.7
2015-08-02T01:52:51.776Z,19.7
2015-08-02T01:53:10.198Z,19.7
2015-08-02T01:53:28.590Z,19.7
2015-08-02T01:53:47.246Z,19.7
2015-08-02T01:54:05.840Z,19.7
2015-08-02T01:54:24.637Z,19.7
2015-08-02T01:54:43.139Z,19.8
2015-08-02T01:55:01.514Z,19.7
2015-08-02T01:55:20.014Z,19.8
2015-08-02T01:55:38.719Z,19.8
2015-08-02T01:55:57.125Z,19.8
2015-08-02T01:56:15.594Z,19.8
2015-08-02T01:56:33.563Z,19.8
2015-08-02T01:56:52.299Z,19.8
2015-08-02T01:57:10.846Z,19.8
2015-08-02T01:57:29.565Z,19.8
2015-08-02T01:57:48.051Z,19.7
2015-08-02T01:58:06.786Z,19.8
2015-08-02T01:58:25.395Z,19.7
2015-08-02T01:58:44.083Z,19.8
2015-08-02T01:59:02.475Z,19.8
2015-08-02T01:59:20.975Z,19.8
2015-08-02T01:59:40.397Z,19.8
2015-08-02T01:59:58.946Z,19.7
2015-08-02T02:00:17.337Z,19.8
2015-08-02T02:00:35.821Z,19.8
2015-08-02T02:00:54.464Z,19.8
2015-08-02T02:01:12.854Z,19.7
2015-08-02T02:01:31.229Z,19.6
2015-08-02T02:01:49.932Z,19.7
2015-08-02T02:02:08.576Z,19.8
2015-08-02T02:02:27.373Z,19.7
2015-08-02T02:02:45.779Z,19.7
2015-08-02T02:03:04.577Z,19.8
2015-08-02T02:03:22.968Z,19.8
2015-08-02T02:03:41.639Z,19.8
2015-08-02T02:04:00.264Z,19.8
2015-08-02T02:04:19.063Z,19.8
2015-08-02T02:04:37.595Z,19.8
2015-08-02T02:04:56.110Z,19.8
2015-08-02T02:05:14.831Z,19.8
2015-08-02T02:05:33.284Z,19.8
2015-08-02T02:05:51.675Z,19.8
2015-08-02T02:06:10.315Z,19.8
2015-08-02T02:06:28.787Z,19.9
2015-08-02T02:06:47.537Z,19.9
2015-08-02T02:07:06.225Z,19.9
2015-08-02T02:07:24.788Z,19.9
2015-08-02T02:07:43.663Z,19.9
2015-08-02T02:08:02.304Z,19.8
2015-08-02T02:08:20.976Z,19.9
2015-08-02T02:08:39.431Z,19.9
2015-08-02T02:08:57.915Z,19.9
2015-08-02T02:09:16.384Z,19.9
2015-08-02T02:09:34.871Z,19.9
2015-08-02T02:09:53.324Z,20
2015-08-02T02:10:12.043Z,20
2015-08-02T02:10:30.621Z,20
2015-08-02T02:10:49.076Z,20
2015-08-02T02:11:07.748Z,20
2015-08-02T02:11:26.311Z,20
2015-08-02T02:11:44.875Z,19.9
2015-08-02T02:12:03.531Z,19.9
2015-08-02T02:12:21.953Z,19.9
2015-08-02T02:12:40.328Z,19.9
2015-08-02T02:12:58.846Z,19.9
2015-08-02T02:13:17.518Z,19.9
2015-08-02T02:13:36.049Z,19.9
2015-08-02T02:13:54.426Z,19.9
2015-08-02T02:14:12.848Z,19.9
2015-08-02T02:14:31.364Z,19.9
2015-08-02T02:14:49.848Z,19.9
2015-08-02T02:15:08.631Z,19.9
2015-08-02T02:15:27.131Z,19.9
2015-08-02T02:15:45.584Z,19.9
2015-08-02T02:16:04.149Z,19.9
2015-08-02T02:16:22.524Z,19.8
2015-08-02T02:16:41.102Z,19.8
2015-08-02T02:16:59.493Z,19.8
2015-08-02T02:17:18.088Z,19.8
2015-08-02T02:17:36.463Z,19.8
2015-08-02T02:17:55.104Z,19.8
2015-08-02T02:18:13.701Z,19.8
2015-08-02T02:18:32.466Z,19.7
2015-08-02T02:18:51.076Z,19.7
2015-08-02T02:19:09.638Z,19.7
2015-08-02T02:19:28.233Z,19.8
2015-08-02T02:19:46.795Z,19.7
2015-08-02T02:20:05.577Z,19.7
2015-08-02T02:20:24.064Z,19.7
2015-08-02T02:20:42.580Z,19.6
2015-08-02T02:21:01.080Z,19.7
2015-08-02T02:21:19.470Z,19.7
2015-08-02T02:21:37.893Z,19.6
2015-08-02T02:21:56.268Z,19.6
2015-08-02T02:22:15.018Z,19.6
2015-08-02T02:22:33.567Z,19.6
2015-08-02T02:22:52.239Z,19.6
2015-08-02T02:23:10.630Z,19.6
2015-08-02T02:23:29.239Z,19.6
2015-08-02T02:23:47.633Z,19.6
2015-08-02T02:24:06.226Z,19.6
2015-08-02T02:24:24.836Z,19.6
2015-08-02T02:24:43.260Z,19.6
2015-08-02T02:25:01.900Z,19.5
2015-08-02T02:25:19.963Z,19.5
2015-08-02T02:25:38.588Z,19.5
2015-08-02T02:25:57.246Z,19.5
2015-08-02T02:26:15.840Z,19.5
2015-08-02T02:26:34.496Z,19.6
2015-08-02T02:26:53.092Z,19.6
2015-08-02T02:27:11.795Z,19.6
2015-08-02T02:27:30.310Z,19.6
2015-08-02T02:27:48.842Z,19.6
2015-08-02T02:28:07.219Z,19.6
2015-08-02T02:28:25.734Z,19.6
2015-08-02T02:28:44.172Z,19.6
2015-08-02T02:29:02.643Z,19.6
2015-08-02T02:29:21.033Z,19.6
2015-08-02T02:29:39.611Z,19.6
2015-08-02T02:29:58.018Z,19.6
2015-08-02T02:30:16.441Z,19.6
2015-08-02T02:30:34.816Z,19.6
2015-08-02T02:30:53.316Z,19.6
2015-08-02T02:31:11.897Z,19.6
2015-08-02T02:31:30.272Z,19.6
2015-08-02T02:31:48.787Z,19.6
2015-08-02T02:32:07.303Z,19.6
2015-08-02T02:32:25.961Z,19.6
2015-08-02T02:32:44.352Z,19.6
2015-08-02T02:33:02.883Z,19.6
2015-08-02T02:33:21.479Z,19.6
2015-08-02T02:33:40.010Z,19.6
2015-08-02T02:33:58.510Z,19.6
2015-08-02T02:34:17.026Z,19.6
2015-08-02T02:34:35.403Z,19.7
2015-08-02T02:34:54.153Z,19.7
2015-08-02T02:35:12.262Z,19.7
2015-08-02T02:35:31.062Z,19.6
2015-08-02T02:35:49.499Z,19.6
2015-08-02T02:36:08.312Z,19.7
2015-08-02T02:36:27.015Z,19.7
2015-08-02T02:36:45.407Z,19.7
2015-08-02T02:37:03.907Z,19.7
2015-08-02T02:37:22.641Z,19.7
2015-08-02T02:37:41.097Z,19.7
2015-08-02T02:37:59.644Z,19.7
2015-08-02T02:38:18.019Z,19.7
2015-08-02T02:38:36.410Z,19.7
2015-08-02T02:38:54.911Z,19.7
2015-08-02T02:39:13.348Z,19.6
2015-08-02T02:39:31.926Z,19.6
2015-08-02T02:39:50.585Z,19.6
2015-08-02T02:40:09.226Z,19.5
2015-08-02T02:40:27.664Z,19.6
2015-08-02T02:40:46.039Z,19.6
2015-08-02T02:41:04.619Z,19.7
2015-08-02T02:41:23.072Z,19.6
2015-08-02T02:41:41.478Z,19.7
2015-08-02T02:41:59.949Z,19.7
2015-08-02T02:42:18.386Z,19.7
2015-08-02T02:42:37.277Z,19.7
2015-08-02T02:42:55.777Z,19.7
2015-08-02T02:43:14.372Z,19.7
2015-08-02T02:43:33.106Z,19.7
2015-08-02T02:43:51.544Z,19.7
2015-08-02T02:44:10.001Z,19.8
2015-08-02T02:44:28.407Z,19.8
2015-08-02T02:44:46.844Z,19.7
2015-08-02T02:45:05.501Z,19.8
2015-08-02T02:45:24.330Z,19.7
2015-08-02T02:45:42.814Z,19.7
2015-08-02T02:46:01.470Z,19.7
2015-08-02T02:46:20.051Z,19.7
2015-08-02T02:46:38.519Z,19.7
2015-08-02T02:46:57.426Z,19.7
2015-08-02T02:47:15.847Z,19.8
2015-08-02T02:47:34.585Z,19.7
2015-08-02T02:47:53.038Z,19.7
2015-08-02T02:48:11.491Z,19.7
2015-08-02T02:48:30.024Z,19.7
2015-08-02T02:48:48.462Z,19.7
2015-08-02T02:49:06.884Z,19.7
2015-08-02T02:49:25.774Z,19.7
2015-08-02T02:49:44.541Z,19.8
2015-08-02T02:50:03.525Z,19.8
2015-08-02T02:50:22.182Z,19.8
2015-08-02T02:50:40.293Z,19.8
2015-08-02T02:50:58.840Z,19.8
2015-08-02T02:51:17.543Z,19.8
2015-08-02T02:51:36.090Z,19.8
2015-08-02T02:51:54.654Z,19.8
2015-08-02T02:52:13.061Z,19.7
2015-08-02T02:52:31.654Z,19.7
2015-08-02T02:52:50.454Z,19.7
2015-08-02T02:53:08.923Z,19.8
2015-08-02T02:53:27.814Z,19.8
2015-08-02T02:53:46.501Z,19.8
2015-08-02T02:54:05.049Z,19.8
2015-08-02T02:54:23.486Z,19.8
2015-08-02T02:54:42.268Z,19.8
2015-08-02T02:55:00.911Z,19.8
2015-08-02T02:55:19.396Z,19.8
2015-08-02T02:55:37.661Z,19.8
2015-08-02T02:55:56.302Z,19.8
2015-08-02T02:56:14.976Z,19.7
2015-08-02T02:56:33.710Z,19.7
2015-08-02T02:56:52.195Z,19.8
2015-08-02T02:57:10.837Z,19.8
2015-08-02T02:57:29.884Z,19.8
2015-08-02T02:57:48.368Z,19.8
2015-08-02T02:58:07.228Z,19.8
2015-08-02T02:58:25.792Z,19.8
2015-08-02T02:58:44.230Z,19.7
2015-08-02T02:59:02.792Z,19.7
2015-08-02T02:59:21.685Z,19.7
2015-08-02T02:59:40.341Z,19.7
2015-08-02T02:59:58.935Z,19.7
2015-08-02T03:00:17.591Z,19.6
2015-08-02T03:00:36.313Z,19.7
2015-08-02T03:00:54.797Z,19.7
2015-08-02T03:01:13.250Z,19.7
2015-08-02T03:01:32.174Z,19.7
2015-08-02T03:01:50.612Z,19.6
2015-08-02T03:02:09.346Z,19.6
2015-08-02T03:02:27.862Z,19.6
2015-08-02T03:02:46.253Z,19.7
2015-08-02T03:03:04.972Z,19.7
2015-08-02T03:03:23.535Z,19.6
2015-08-02T03:03:41.943Z,19.6
2015-08-02T03:04:00.615Z,19.6
2015-08-02T03:04:19.115Z,19.6
2015-08-02T03:04:37.505Z,19.7
2015-08-02T03:04:56.087Z,19.7
2015-08-02T03:05:14.696Z,19.7
2015-08-02T03:05:33.337Z,19.7
2015-08-02T03:05:51.807Z,19.7
2015-08-02T03:06:10.198Z,19.8
2015-08-02T03:06:28.807Z,19.8
2015-08-02T03:06:47.729Z,19.7
2015-08-02T03:07:06.246Z,19.8
2015-08-02T03:07:24.933Z,19.8
2015-08-02T03:07:43.621Z,19.7
2015-08-02T03:08:02.061Z,19.8
2015-08-02T03:08:20.452Z,19.8
2015-08-02T03:08:39.030Z,19.7
2015-08-02T03:08:57.811Z,19.7
2015-08-02T03:09:15.735Z,19.7
2015-08-02T03:09:34.313Z,19.8
2015-08-02T03:09:52.704Z,19.7
2015-08-02T03:10:11.284Z,19.8
2015-08-02T03:10:29.659Z,19.8
2015-08-02T03:10:48.315Z,19.8
2015-08-02T03:11:06.972Z,19.8
2015-08-02T03:11:25.380Z,19.8
2015-08-02T03:11:43.974Z,19.8
2015-08-02T03:12:02.474Z,19.8
2015-08-02T03:12:21.007Z,19.8
2015-08-02T03:12:39.726Z,19.9
2015-08-02T03:12:58.132Z,19.9
2015-08-02T03:13:16.741Z,19.9
2015-08-02T03:13:35.384Z,19.9
2015-08-02T03:13:54.274Z,19.9
2015-08-02T03:14:12.774Z,19.9
2015-08-02T03:14:31.417Z,19.9
2015-08-02T03:14:50.073Z,19.9
2015-08-02T03:15:08.651Z,19.9
2015-08-02T03:15:27.136Z,19.9
2015-08-02T03:15:45.935Z,19.9
2015-08-02T03:16:04.575Z,19.9
2015-08-02T03:16:22.982Z,19.9
2015-08-02T03:16:41.438Z,19.9
2015-08-02T03:17:00.156Z,19.9
2015-08-02T03:17:18.688Z,19.9
2015-08-02T03:17:37.594Z,19.9
2015-08-02T03:17:55.970Z,19.9
2015-08-02T03:18:14.501Z,19.9
2015-08-02T03:18:33.220Z,19.9
2015-08-02T03:18:51.989Z,19.9
2015-08-02T03:19:10.442Z,19.9
2015-08-02T03:19:29.035Z,19.9
2015-08-02T03:19:47.004Z,19.9
2015-08-02T03:20:05.491Z,19.9
2015-08-02T03:20:24.053Z,19.8
2015-08-02T03:20:42.506Z,19.9
2015-08-02T03:21:00.883Z,19.9
2015-08-02T03:21:19.305Z,19.9
2015-08-02T03:21:37.758Z,19.9
2015-08-02T03:21:56.274Z,19.9
2015-08-02T03:22:14.932Z,19.9
2015-08-02T03:22:33.682Z,19.9
2015-08-02T03:22:51.682Z,19.9
2015-08-02T03:23:10.059Z,19.9
2015-08-02T03:23:28.512Z,19.9
2015-08-02T03:23:46.934Z,19.8
2015-08-02T03:24:05.528Z,19.8
2015-08-02T03:24:23.967Z,19.9
2015-08-02T03:24:42.530Z,19.9
2015-08-02T03:25:00.374Z,19.9
2015-08-02T03:25:19.205Z,19.8
2015-08-02T03:25:37.580Z,19.9
2015-08-02T03:25:56.017Z,19.9
2015-08-02T03:26:14.642Z,19.9
2015-08-02T03:26:33.346Z,19.8
2015-08-02T03:26:51.924Z,19.8
2015-08-02T03:27:10.643Z,19.8
2015-08-02T03:27:29.427Z,19.8
2015-08-02T03:27:48.318Z,19.8
2015-08-02T03:28:06.771Z,19.9
2015-08-02T03:28:25.334Z,19.9
2015-08-02T03:28:44.008Z,19.9
2015-08-02T03:29:02.429Z,19.9
2015-08-02T03:29:21.070Z,19.9
2015-08-02T03:29:40.259Z,19.9
2015-08-02T03:29:58.712Z,19.9
2015-08-02T03:30:17.509Z,19.9
2015-08-02T03:30:35.965Z,19.9
2015-08-02T03:30:54.449Z,19.9
2015-08-02T03:31:13.012Z,20
2015-08-02T03:31:31.668Z,20
2015-08-02T03:31:50.075Z,19.9
2015-08-02T03:32:08.544Z,19.9
2015-08-02T03:32:26.997Z,19.9
2015-08-02T03:32:45.577Z,19.9
2015-08-02T03:33:04.311Z,19.9
2015-08-02T03:33:22.765Z,19.9
2015-08-02T03:33:41.640Z,19.9
2015-08-02T03:34:00.282Z,19.8
2015-08-02T03:34:18.720Z,19.8
2015-08-02T03:34:36.813Z,19.7
2015-08-02T03:34:55.253Z,19.7
2015-08-02T03:35:13.690Z,19.7
2015-08-02T03:35:32.081Z,19.7
2015-08-02T03:35:50.487Z,19.7
2015-08-02T03:36:09.100Z,19.8
2015-08-02T03:36:27.522Z,19.8
2015-08-02T03:36:46.022Z,19.8
2015-08-02T03:37:04.524Z,19.8
2015-08-02T03:37:23.055Z,19.6
2015-08-02T03:37:41.461Z,19.6
2015-08-02T03:38:00.008Z,19.6
2015-08-02T03:38:18.479Z,19.6
2015-08-02T03:38:37.197Z,19.6
2015-08-02T03:38:55.713Z,19.6
2015-08-02T03:39:14.090Z,19.7
2015-08-02T03:39:32.684Z,19.7
2015-08-02T03:39:51.153Z,19.7
2015-08-02T03:40:09.590Z,19.7
2015-08-02T03:40:28.075Z,19.8
2015-08-02T03:40:46.607Z,19.8
2015-08-02T03:41:04.982Z,19.7
2015-08-02T03:41:23.391Z,19.6
2015-08-02T03:41:41.938Z,19.6
2015-08-02T03:42:00.516Z,19.6
2015-08-02T03:42:19.016Z,19.6
2015-08-02T03:42:37.799Z,19.6
2015-08-02T03:42:56.330Z,19.6
2015-08-02T03:43:14.893Z,19.5
2015-08-02T03:43:33.287Z,19.6
2015-08-02T03:43:51.896Z,19.6
2015-08-02T03:44:10.427Z,19.6
2015-08-02T03:44:29.037Z,19.6
2015-08-02T03:44:47.709Z,19.7
2015-08-02T03:45:06.319Z,19.7
2015-08-02T03:45:24.725Z,19.7
2015-08-02T03:45:43.369Z,19.7
2015-08-02T03:46:02.166Z,19.7
2015-08-02T03:46:20.587Z,19.7
2015-08-02T03:46:39.072Z,19.7
2015-08-02T03:46:57.480Z,19.6
2015-08-02T03:47:16.121Z,19.5
2015-08-02T03:47:34.714Z,19.5
2015-08-02T03:47:53.185Z,19.6
2015-08-02T03:48:11.623Z,19.6
2015-08-02T03:48:30.201Z,19.6
2015-08-02T03:48:48.716Z,19.7
2015-08-02T03:49:07.109Z,19.7
2015-08-02T03:49:25.797Z,19.7
2015-08-02T03:49:44.437Z,19.7
2015-08-02T03:50:03.033Z,19.7
2015-08-02T03:50:21.908Z,19.7
2015-08-02T03:50:40.642Z,19.8
2015-08-02T03:50:59.017Z,19.8
2015-08-02T03:51:17.582Z,19.8
2015-08-02T03:51:35.332Z,19.7
2015-08-02T03:51:53.879Z,19.7
2015-08-02T03:52:12.645Z,19.5
2015-08-02T03:52:31.380Z,19.5
2015-08-02T03:52:49.802Z,19.6
2015-08-02T03:53:08.317Z,19.7
2015-08-02T03:53:26.913Z,19.7
2015-08-02T03:53:45.335Z,19.7
2015-08-02T03:54:03.788Z,19.8
2015-08-02T03:54:21.853Z,19.7
2015-08-02T03:54:40.369Z,19.6
2015-08-02T03:54:59.135Z,19.5
2015-08-02T03:55:17.682Z,19.5
2015-08-02T03:55:36.090Z,19.5
2015-08-02T03:55:54.652Z,19.4
2015-08-02T03:56:13.137Z,19.3
2015-08-02T03:56:31.748Z,19.3
2015-08-02T03:56:50.201Z,19.3
2015-08-02T03:57:08.639Z,19.3
2015-08-02T03:57:27.139Z,19.3
2015-08-02T03:57:45.548Z,19.2
2015-08-02T03:58:04.048Z,19.3
2015-08-02T03:58:22.517Z,19.3
2015-08-02T03:58:40.955Z,19.3
2015-08-02T03:58:59.346Z,19.3
2015-08-02T03:59:17.861Z,19.4
2015-08-02T03:59:36.315Z,19.4
2015-08-02T03:59:54.676Z,19.5
2015-08-02T04:00:13.082Z,19.5
2015-08-02T04:00:31.473Z,19.6
2015-08-02T04:00:50.084Z,19.6
2015-08-02T04:01:08.522Z,19.6
2015-08-02T04:01:26.928Z,19.6
2015-08-02T04:01:45.522Z,19.6
2015-08-02T04:02:03.930Z,19.7
2015-08-02T04:02:22.492Z,19.6
2015-08-02T04:02:41.164Z,19.6
2015-08-02T04:02:59.807Z,19.6
2015-08-02T04:03:18.276Z,19.6
2015-08-02T04:03:36.854Z,19.6
2015-08-02T04:03:54.791Z,19.6
2015-08-02T04:04:13.247Z,19.6
2015-08-02T04:04:31.810Z,19.6
2015-08-02T04:04:50.451Z,19.6
2015-08-02T04:05:08.858Z,19.6
2015-08-02T04:05:27.358Z,19.7
2015-08-02T04:05:45.827Z,19.7
2015-08-02T04:06:04.264Z,19.7
2015-08-02T04:06:22.736Z,19.7
2015-08-02T04:06:41.330Z,19.7